Halma, MN (56729)

3:14 PM CDT on July 22, 2014 (GMT -0500)
Hallock Municipal (KHCO) Elev 820 ft | 48.75 °N, 96.94 °W | Change Station

Current weather conditions updated 21 minutes ago

Clear
Clear
75 °F
Feels Like 75 °F
N
13
Wind Variable Wind from NNW

Today is forecast to be Much Cooler than yesterday.

Today
High -- | Low -- °F
--% Chance of Precip.
Yesterday
High -- | Low -- °F
Precip. -- in
5:47 AM 9:17 PM
Waning Crescent, 15% visible
Pressure 30.16 in
Visibility 10.0 miles
Clouds Clear
Dew Point 55 °F
Humidity 50%
Rainfall 0.27 in
Snow Depth Not available.
UV 9 out of 12
Pollen 4.00 out of 12
Air Quality Not available.
Flu Activity Sporadic
METAR KHCO 221953Z AUTO 34011KT 10SM CLR 24/13 A3016 RMK AO2

More Conditions Fewer Conditions

Pressure 30.16 in
Visibility 10.0 miles
Clouds Clear
Dew Point 55 °F
Humidity 50%
Rainfall 0.27 in
Snow Depth Not available.
UV 9 out of 12
Pollen 4.00 out of 12
Air Quality Not available.
Flu Activity Sporadic
METAR KHCO 221953Z AUTO 34011KT 10SM CLR 24/13 A3016 RMK AO2

More Conditions Fewer Conditions

10-Day Weather Forecast

Almanac

Astronomy

Jul. 22, 2014 Rise Set
Actual Time 5:47 AM CDT 9:17 PM CDT
Civil Twilight 5:08 AM CDT 9:55 PM CDT
Nautical Twilight 4:16 AM CDT 10:47 PM CDT
Astronomical Twilight 3:05 AM CDT 11:57 PM CDT
Moon 2:25 AM CDT 5:53 PM CDT
Length of Visible Light 16h 47m
Length of Day
15h 29m
Tomorrow will be 2m 23s shorter.
Waning Crescent, 15% of the Moon is Illuminated
Today
Waning Crescent
Jul 26
New
Aug 3
First Quarter
Aug 10
Full
Aug 17
Last Quarter

Today's Extremes

State Highs State Lows

Community

WunderPhotos

Upload Photos

1,736,345 photos uploaded!

Nearby

Snow Depth

Station Depth Elevation
No new snow has been reported.

Earthquake Activity

City Distance Mag. Time & Date
No recent earthquake activity has been reported nearby.
Minimum magnitude displayed is 2.5.

Coastal Water Temperatures

Place Temperature
No Stations Reporting

Nearby Weather Stations

There are no personal weather stations in this area.